Tiempo atmosférico en la estación meteorológica de Fuente El Sol, Valladolid (755 m.)



Fecha
DESCASC
Temp. máxima en grados centígrados (hora)
DESCASC
Temp. mínima en grados centígrados (hora)
DESCASC
Temp. media en grados centígrados
DESCASC
Racha de viento máxima en m/sg (hora)
DESCASC
Velocidad máxima media en intervalos de 10 minutos(hora)
DESCASC
Precipitaciones diarias en mm
DESCASC
Precipitaciones de 00:00 a 06:00 en mm
DESCASC
Precipitaciones de 06:00 a 12:00 en mm
DESCASC
Precipitaciones de 12:00 a 18:00 en mm
DESCASC
Precipitaciones de 18:00 a 24:00 en mm
DESCASC
28-02-2021 14 (15:30) -2.4 (04:30) 5.8 11.67 (22:20) 8.33 (22:40) 0 0 0 0 0
27-02-2021 16.5 (17:20) -0.3 (08:00) 8.1 6.67 (16:20) 4.17 (18:30) 0 0 0 0 0
26-02-2021 14.8 (15:20) 3 (07:00) 8.9 6.67 (14:40) 3.61 (15:00) 0 0 0 0 0
25-02-2021 15.3 (15:10) 6 (00:00) 10.7 12.22 (11:30) 8.89 (07:20) 0 0 0 0 0
24-02-2021 15.1 (16:00) 4.5 (00:00) 9.8 16.11 (12:20) 12.78 (12:30) 0 0 0 0 0
23-02-2021 14.3 (15:30) -3.3 (-00:0) 5.5 10 (13:40) 7.5 (16:30) 0 0 0 0 0
22-02-2021 13.1 (18:40) 0.9 (00:00) 7 7.5 (04:40) 5.28 (04:50) 0 0 0 0 0
21-02-2021 12.7 (00:30) 3.4 (00:00) 8 14.17 (03:40) 11.39 (05:40) 6.2 0 0 1.6 4.6
20-02-2021 14.4 (15:10) 2 (00:00) 8.2 16.11 (17:50) 12.5 (15:30) 0 0 0 0 0
19-02-2021 17.3 (15:20) 2.7 (00:00) 10 11.39 (15:40) 7.78 (16:10) 0 0 0 0 0
18-02-2021 14.2 (15:30) 5 (00:00) 9.6 15.56 (13:00) 10.83 (13:00) 0 0 0 0 0
17-02-2021 15.1 (15:40) 5.3 (00:00) 10.2 9.72 (15:40) 6.94 (13:00) 0 0 0 0 0
16-02-2021 14.1 (14:30) 1.9 (00:00) 8 11.39 (14:20) 8.61 (14:20) 0 0 0 0 0
15-02-2021 16.9 (17:30) 1.2 (00:00) 9 9.72 (14:10) 7.78 (14:30) 0 0 0 0 0
14-02-2021 18.5 (16:30) -0.6 (-00:0) 8.9 7.22 (20:40) 5.28 (20:30) 0 0 0 0 0
13-02-2021 14.6 (16:40) 1.4 (00:00) 8 7.22 (14:50) 5 (02:30) 0 0 0 0 0
12-02-2021 13 (16:40) 5.3 (00:00) 9.2 13.33 (12:10) 10.28 (12:10) 3.6 3.6 0 0 0
11-02-2021 14.9 (16:10) 7.1 (00:00) 11 13.06 (15:40) 8.06 (15:30) 0.4 0.2 0.2 0 0
10-02-2021 11.7 (15:50) 4.5 (00:00) 8.1 17.78 (03:30) 13.33 (03:20) 8.4 8.4 0 0 0
09-02-2021 8.3 (11:10) 3.2 (00:00) 5.8 19.17 (13:00) 14.17 (13:00) 11.8 0.8 0.4 5.4 5.2
08-02-2021 8.5 (14:20) 4.7 (00:00) 6.6 16.39 (11:40) 11.39 (01:20) 6.8 3 0.4 2.8 0.6
07-02-2021 7.8 (11:40) 3.3 (00:00) 5.6 11.39 (23:20) 8.06 (17:00) 2 0 0 1.6 0.4
06-02-2021 8.9 (00:00) 4.8 (00:00) 6.8 10 (16:20) 6.94 (16:20) 10.2 3.8 6.2 0 0.2
05-02-2021 13.8 (12:00) 4.4 (00:00) 9.1 6.94 (23:59) 4.72 (23:59) 3 0.8 2 0 0.2
04-02-2021 8.7 (00:40) 4.3 (00:00) 6.5 10 (12:30) 8.06 (12:30) 5.4 0.6 0.4 4 0.4
03-02-2021 13.4 (14:00) 6.9 (00:00) 10.1 13.61 (10:30) 8.89 (10:50) 2.6 0 0 0.2 2.4
02-02-2021 13.9 (16:10) 6.5 (22:50) 10.2 12.78 (18:00) 10.28 (18:00) 0 0 0 0 0
01-02-2021 12.8 (15:40) 6.9 (00:00) 9.9 15.83 (15:20) 12.22 (15:20) 0 0 0 0 0

Gráficas

Temp. máximas Temp. mínimas Temp. medias Precipitaciones Rachas de viento máximas Velocidades máximas media en intervalos de 10 minutos

Datos horarios

Fecha y hora oficial Temperatura (ºC) Velocidad del viento (km/h) Dirección del viento Racha (km/h) Dirección de racha Precipitación (mm) Presión (hPa) Tendencia (hPa) Humedad (%)
2021-03-02 23:00:00 6.6 13 Sur 17 Sudeste 0 -- -- 87
2021-03-02 22:00:00 7.3 5 Sur 20 Sudoeste 0 -- -- 84
2021-03-02 21:00:00 9.3 14 Sudoeste 23 Sur 0 -- -- 78
2021-03-02 20:00:00 10.4 18 Sur 23 Sur 0 -- -- 71
2021-03-02 19:00:00 11.2 12 Sur 21 Sur 0 -- -- 71
2021-03-02 18:00:00 13.7 15 Sur 23 Sur 0 -- -- 63
2021-03-02 17:00:00 13.8 14 Sur 29 Sur 0 -- -- 60
2021-03-02 16:00:00 14.3 17 Sudeste 25 Sudeste 0 -- -- 60
2021-03-02 15:00:00 14.9 12 Sudeste 23 Sudeste 0 -- -- 56
2021-03-02 14:00:00 14.5 14 Sudeste 25 Sur 0 -- -- 58
2021-03-02 13:00:00 13.9 11 Sur 30 Sur 0 -- -- 56
2021-03-02 12:00:00 11.9 23 Sur 38 Sur 0 -- -- 72
2021-03-02 11:00:00 10.1 26 Sur 34 Sur 0 -- -- 78
2021-03-02 10:00:00 8.5 10 Sur 25 Sudeste 0 -- -- 86
2021-03-02 09:00:00 7.3 13 Sur 18 Sur 0 -- -- 90
2021-03-02 08:00:00 4.8 13 Sur 15 Sur 0 -- -- 96
2021-03-02 07:00:00 5.1 12 Sudoeste 22 Sur 0 -- -- 92
2021-03-02 06:00:00 6 17 Sur 29 Sudeste 0 -- -- 92
2021-03-02 05:00:00 6.5 23 Sudeste 35 Sudeste 0 -- -- 90
2021-03-02 04:00:00 6.8 21 Sudeste 30 Sudeste 0 -- -- 91
2021-03-02 03:00:00 6.5 19 Sudeste 29 Sudeste 0 -- -- 91
2021-03-02 02:00:00 6 17 Sudeste 23 Sudeste 0 -- -- 92
2021-03-02 01:00:00 6 14 Sudeste 21 Sudeste 0 -- -- 93
2021-03-02 00:00:00 6.4 15 Sur 20 Sur 0 -- -- 91
2021-03-01 23:00:00 7.7 20 Sur 33 Sur 0 -- -- 85
2021-03-01 22:00:00 8.5 23 Sur 31 Sur 0 -- -- 84
2021-03-01 21:00:00 7.7 21 Sudeste 30 Sudeste 0 -- -- 87
2021-03-01 20:00:00 7.6 17 Sur 25 Sudeste 0 -- -- 86
2021-03-01 19:00:00 8.4 18 Sudeste 39 Sudeste 0 -- -- 84
2021-03-01 18:00:00 9.5 28 Sudeste 53 Sudeste 0 -- -- 79
2021-03-01 17:00:00 11.2 39 Sudeste 51 Sudeste 0 -- -- 72
2021-03-01 16:00:00 10.5 33 Sudeste 50 Sudeste 0 -- -- 72
2021-03-01 15:00:00 10.9 39 Sudeste 49 Sudeste 0 -- -- 70
2021-03-01 14:00:00 11.8 39 Sudeste 50 Sudeste 0 -- -- 66
2021-03-01 13:00:00 12.1 35 Sudeste 51 Sudeste 0 -- -- 63
2021-03-01 12:00:00 11.2 40 Sudeste 51 Sudeste 0 -- -- 67
2021-03-01 11:00:00 10.6 41 Sudeste 52 Sur 0 -- -- 67
2021-03-01 10:00:00 8.6 30 Sudeste 43 Sudeste 0 -- -- 74
2021-03-01 09:00:00 8.3 25 Sur 34 Sudeste 0 -- -- 76
2021-03-01 08:00:00 6.8 25 Sur 35 Sur 0 -- -- 81
2021-03-01 07:00:00 6.9 27 Sur 47 Sudeste 0 -- -- 80
2021-03-01 06:00:00 7 34 Sudeste 46 Sudeste 0 -- -- 79
2021-03-01 05:00:00 6.5 28 Sudeste 41 Sudeste 0 -- -- 80
2021-03-01 04:00:00 6.3 24 Sudeste 36 Sudeste 0 -- -- 83
2021-03-01 03:00:00 6.2 23 Sudeste 35 Sudeste 0 -- -- 84
2021-03-01 02:00:00 6.6 22 Sudeste 33 Sur 0 -- -- 84
2021-03-01 01:00:00 7.1 22 Sur 31 Sur 0 -- -- 81
2021-03-01 00:00:00 7.5 18 Sur 32 Sur 0 -- -- 78
2021-02-28 23:00:00 8.5 27 Sur 42 Sur 0 -- -- 75
2021-02-28 22:00:00 9.6 29 Sur 40 Sur 0 -- -- 70
2021-02-28 21:00:00 8.5 5 Sur 8 Sudeste 0 -- -- 76
2021-02-28 20:00:00 8.8 3 Sudeste 7 Sudeste 0 -- -- 76
2021-02-28 19:00:00 10.8 6 Sudeste 9 Sudeste 0 -- -- 68
2021-02-28 18:00:00 12.2 5 Sudoeste 16 Oeste 0 -- -- 59
2021-02-28 17:00:00 12.3 9 Oeste 21 Sudoeste 0 -- -- 56
2021-02-28 16:00:00 13.1 8 Sudoeste 17 Oeste 0 -- -- 53
2021-02-28 15:00:00 13.1 10 Oeste 15 Oeste 0 -- -- 55
2021-02-28 14:00:00 12 6 Oeste 17 Oeste 0 -- -- 62
2021-02-28 13:00:00 12.5 5 Noroeste 10 Norte 0 -- -- 61
2021-02-28 12:00:00 10.6 3 Noroeste 9 Este 0 -- -- 64
2021-02-28 11:00:00 6.6 6 Nordeste 13 Nordeste 0 -- -- 75
2021-02-28 10:00:00 4.1 4 Nordeste 8 Nordeste 0 -- -- 83
2021-02-28 09:00:00 1.1 3 Norte 5 Noroeste 0 -- -- 89
2021-02-28 08:00:00 -2.3 0 Calma 6 Nordeste 0 -- -- 96
2021-02-28 07:00:00 -0.9 5 Nordeste 9 Nordeste 0 -- -- 94
2021-02-28 06:00:00 -1.5 3 Nordeste 8 Nordeste 0 -- -- 97
2021-02-28 05:00:00 -1.6 2 Nordeste 4 Oeste 0 -- -- 96
2021-02-28 04:00:00 -2 3 Sur 4 Sudeste 0 -- -- 94
2021-02-28 03:00:00 -1 0 Calma 5 Nordeste 0 -- -- 92
2021-02-28 02:00:00 0.2 0 Calma 12 Norte 0 -- -- 86
2021-02-28 01:00:00 1.7 5 Norte 15 Norte 0 -- -- 82
2021-02-28 00:00:00 3.1 10 Norte 13 Norte 0 -- -- 79
2021-02-27 23:00:00 4 6 Norte 13 Nordeste 0 -- -- 84
2021-02-27 22:00:00 6.4 10 Nordeste 18 Nordeste 0 -- -- 75
2021-02-27 21:00:00 7.3 10 Nordeste 17 Norte 0 -- -- 73
2021-02-27 20:00:00 8.7 9 Norte 14 Norte 0 -- -- 77
2021-02-27 19:00:00 11.3 11 Norte 22 Norte 0 -- -- 68
2021-02-27 18:00:00 14.8 13 Norte 20 Norte 0 -- -- 58
2021-02-27 17:00:00 16.3 14 Norte 24 Norte 0 -- -- 50
2021-02-27 16:00:00 16.2 9 Norte 19 Nordeste 0 -- -- 52
2021-02-27 15:00:00 15.3 10 Norte 19 Nordeste 0 -- -- 56
2021-02-27 14:00:00 14.4 6 Nordeste 15 Nordeste 0 -- -- 63
2021-02-27 13:00:00 11.9 8 Nordeste 13 Norte 0 -- -- 69
2021-02-27 12:00:00 9.5 6 Norte 10 Norte 0 -- -- 80
2021-02-27 11:00:00 7.5 5 Nordeste 9 Norte 0 -- -- 93
2021-02-27 10:00:00 4 2 Nordeste 4 Nordeste 0 -- -- 97
2021-02-27 09:00:00 0.6 0 Calma 2 Noroeste 0 -- -- 99
2021-02-27 08:00:00 -0.3 0 Calma 3 Sudeste 0 -- -- 100
2021-02-27 07:00:00 0.4 2 Nordeste 6 Norte 0 -- -- 100
2021-02-27 06:00:00 0.6 3 Norte 4 Norte 0 -- -- 100
2021-02-27 05:00:00 1.3 2 Este 8 Nordeste 0 -- -- 99
2021-02-27 04:00:00 1.3 4 Nordeste 7 Norte 0 -- -- 99
2021-02-27 03:00:00 3 5 Nordeste 8 Nordeste 0 -- -- 100
2021-02-27 02:00:00 2.7 0 Calma 6 Nordeste 0 -- -- 98
2021-02-27 01:00:00 4.3 0 Calma 5 Este 0 -- -- 98
2021-02-27 00:00:00 4.5 5 Este 8 Sudeste 0 -- -- 97
2021-02-26 23:00:00 5.5 4 Este 10 Nordeste 0 -- -- 93
2021-02-26 22:00:00 7.9 8 Nordeste 10 Nordeste 0 -- -- 86
2021-02-26 21:00:00 7.8 2 Norte 10 Nordeste 0 -- -- 86
2021-02-26 20:00:00 9.5 5 Norte 9 Nordeste 0 -- -- 81
2021-02-26 19:00:00 11.3 6 Norte 9 Norte 0 -- -- 76
2021-02-26 18:00:00 13.3 6 Norte 12 Norte 0 -- -- 70
2021-02-26 17:00:00 14.3 9 Nordeste 15 Este 0 -- -- 62
2021-02-26 16:00:00 14.5 9 Nordeste 19 Este 0 -- -- 58
2021-02-26 15:00:00 14.4 13 Nordeste 24 Nordeste 0 -- -- 58
2021-02-26 14:00:00 14.7 10 Nordeste 20 Nordeste 0 -- -- 62
2021-02-26 13:00:00 13.1 9 Nordeste 17 Este 0 -- -- 66
2021-02-26 12:00:00 11.1 7 Nordeste 13 Nordeste 0 -- -- 74
2021-02-26 11:00:00 9.1 10 Norte 14 Nordeste 0 -- -- 84
2021-02-26 10:00:00 7 5 Nordeste 9 Este 0 -- -- 89
2021-02-26 09:00:00 4.4 2 Nordeste 6 Norte 0 -- -- 98
2021-02-26 08:00:00 3.6 6 Norte 9 Norte 0 -- -- 98
2021-02-26 07:00:00 3 0 Calma 5 Nordeste 0 -- -- 98
2021-02-26 06:00:00 3.9 2 Nordeste 6 Nordeste 0 -- -- 98
2021-02-26 05:00:00 4.6 3 Este 10 Nordeste 0 -- -- 97
2021-02-26 04:00:00 5.2 7 Nordeste 11 Nordeste 0 -- -- 96
2021-02-26 03:00:00 6.2 6 Nordeste 13 Nordeste 0 -- -- 93
2021-02-26 02:00:00 6.7 8 Norte 12 Norte 0 -- -- 93
2021-02-26 01:00:00 6.5 2 Norte 8 Norte 0 -- -- 93
2021-02-26 00:00:00 6.2 0 Calma 6 Norte 0 -- -- 93
2021-02-25 23:00:00 6.2 3 Sur 6 Norte 0 -- -- 91
2021-02-25 22:00:00 6.9 0 Calma 7 Este 0 -- -- 90
2021-02-25 21:00:00 8.9 4 Este 6 Este 0 -- -- 80
2021-02-25 20:00:00 9.9 6 Sudeste 22 Sudeste 0 -- -- 76
2021-02-25 19:00:00 10.1 10 Sudeste 14 Sudeste 0 -- -- 81
2021-02-25 18:00:00 12.6 6 Este 13 Este 0 -- -- 68
2021-02-25 17:00:00 13.4 10 Nordeste 17 Nordeste 0 -- -- 62
2021-02-25 16:00:00 14.3 6 Norte 14 Norte 0 -- -- 60
2021-02-25 15:00:00 14.7 5 Sudoeste 19 Sudeste 0 -- -- 56
2021-02-25 14:00:00 13.4 9 Sudeste 22 Sudeste 0 -- -- 62
2021-02-25 13:00:00 11.9 17 Sudeste 35 Sudeste 0 -- -- 65
2021-02-25 12:00:00 10.5 28 Sudeste 44 Sur 0 -- -- 70
2021-02-25 11:00:00 9.7 29 Sudeste 39 Sudeste 0 -- -- 74
2021-02-25 10:00:00 8.4 26 Sur 39 Sudeste 0 -- -- 78
2021-02-25 09:00:00 7.6 24 Sur 38 Sudeste 0 -- -- 79
2021-02-25 08:00:00 7.4 27 Sudeste 43 Sur 0 -- -- 79
2021-02-25 07:00:00 7.6 30 Sudeste 41 Sudeste 0 -- -- 80
2021-02-25 06:00:00 7.4 24 Sudeste 35 Sudeste 0 -- -- 81
2021-02-25 05:00:00 7.6 25 Sudeste 33 Sudeste 0 -- -- 80
2021-02-25 04:00:00 7.6 27 Sudeste 35 Sudeste 0 -- -- 81
2021-02-25 03:00:00 7.8 25 Sudeste 33 Sudeste 0 -- -- 82
2021-02-25 02:00:00 8 23 Sudeste 32 Sudeste 0 -- -- 82
2021-02-25 01:00:00 8.1 20 Sudeste 34 Sudeste 0 -- -- 82
2021-02-25 00:00:00 8.9 27 Sudeste 40 Sudeste 0 -- -- 78
2021-02-24 23:00:00 8.7 23 Sudeste 30 Sudeste 0 -- -- 80
2021-02-24 22:00:00 8.6 17 Sur 23 Sudeste 0 -- -- 84
2021-02-24 21:00:00 8.5 14 Sudeste 30 Sudeste 0 -- -- 86
2021-02-24 20:00:00 9.7 21 Sudeste 31 Sudeste 0 -- -- 80
2021-02-24 19:00:00 11.1 19 Sudeste 42 Sudeste 0 -- -- 73
2021-02-24 18:00:00 13.5 31 Sudeste 48 Sudeste 0 -- -- 61
2021-02-24 17:00:00 14.1 37 Sudeste 52 Sudeste 0 -- -- 58
2021-02-24 16:00:00 15.1 36 Sudeste 51 Sudeste 0 -- -- 53
2021-02-24 15:00:00 14.8 36 Sudeste 51 Sudeste 0 -- -- 56
2021-02-24 14:00:00 13.5 37 Sudeste 52 Sudeste 0 -- -- 59
2021-02-24 13:00:00 12.3 39 Sudeste 58 Sudeste 0 -- -- 66
2021-02-24 12:00:00 12.2 37 Sudeste 48 Sudeste 0 -- -- 65
2021-02-24 11:00:00 11.2 32 Sudeste 48 Sur 0 -- -- 69
2021-02-24 10:00:00 9.1 31 Sudeste 39 Sudeste 0 -- -- 75
2021-02-24 09:00:00 6.5 19 Sudeste 27 Sudeste 0 -- -- 85
2021-02-24 08:00:00 5.1 20 Sudeste 27 Sudeste 0 -- -- 89
2021-02-24 07:00:00 5.5 20 Sudeste 36 Sur 0 -- -- 88
2021-02-24 06:00:00 6.3 27 Sudeste 37 Sudeste 0 -- -- 85
2021-02-24 05:00:00 5.8 23 Sudeste 42 Sudeste 0 -- -- 87
2021-02-24 04:00:00 6.6 33 Sudeste 46 Sur 0 -- -- 83
2021-02-24 03:00:00 6.1 23 Sur 31 Sur 0 -- -- 84
2021-02-24 02:00:00 5.4 17 Sudeste 23 Sudeste 0 -- -- 87
2021-02-24 01:00:00 5 17 Sudeste 23 Sudeste 0 -- -- 87
2021-02-24 00:00:00 5 15 Sudeste 19 Sudeste 0 -- -- 87
2021-02-23 23:00:00 4.7 13 Sur 17 Sur 0 -- -- 88
2021-02-23 22:00:00 6.1 14 Sur 26 Sudeste 0 -- -- 83
2021-02-23 21:00:00 7.1 20 Sudeste 28 Sudeste 0 -- -- 77
2021-02-23 20:00:00 8.2 22 Sudeste 32 Sudeste 0 -- -- 70
2021-02-23 19:00:00 10.2 23 Sudeste 35 Sudeste 0 -- -- 62
2021-02-23 18:00:00 13.1 21 Sudeste 35 Sudeste 0 -- -- 53
2021-02-23 17:00:00 13.8 27 Sudeste 35 Sudeste 0 -- -- 50
2021-02-23 16:00:00 14 22 Sudeste 35 Sudeste 0 -- -- 50
2021-02-23 15:00:00 13.9 22 Sur 34 Sudeste 0 -- -- 43
2021-02-23 14:00:00 12.9 24 Sudeste 36 Sudeste 0 -- -- 52
2021-02-23 13:00:00 12.2 24 Sudeste 32 Sudeste 0 -- -- 55
2021-02-23 12:00:00 10.6 14 Sur 22 Sur 0 -- -- 54
2021-02-23 11:00:00 6.4 7 Sur 11 Sur 0 -- -- 71
2021-02-23 10:00:00 3.9 5 Sudeste 8 Este 0 -- -- 78
2021-02-23 09:00:00 0.8 4 Este 7 Este 0 -- -- 82
2021-02-23 08:00:00 -3.1 0 Calma 6 Este 0 -- -- 97
2021-02-23 07:00:00 -2.8 0 Calma 7 Oeste 0 -- -- 96
2021-02-23 06:00:00 -1.8 4 Sur 6 Sur 0 -- -- 93
2021-02-23 05:00:00 -1.4 5 Sudoeste 9 Sur 0 -- -- 91
2021-02-23 04:00:00 -1.3 5 Sur 8 Sur 0 -- -- 93
2021-02-23 03:00:00 -0.7 6 Sur 14 Sur 0 -- -- 91
2021-02-23 02:00:00 -0.3 6 Sur 13 Sur 0 -- -- 90
2021-02-23 01:00:00 0.5 6 Sur 13 Sur 0 -- -- 89
2021-02-23 00:00:00 0.9 6 Sur 15 Sudeste 0 -- -- 90
2021-02-22 23:00:00 2 11 Sur 15 Sur 0 -- -- 88
2021-02-22 22:00:00 1.9 8 Sur 14 Sudeste 0 -- -- 89
2021-02-22 21:00:00 3 10 Sudeste 11 Sudeste 0 -- -- 86
2021-02-22 20:00:00 4.3 7 Sudeste 8 Sudeste 0 -- -- 79
2021-02-22 19:00:00 8.8 3 Este 8 Noroeste 0 -- -- 55
2021-02-22 18:00:00 12.7 4 Noroeste 18 Sur 0 -- -- 41
2021-02-22 17:00:00 12.5 5 Noroeste 17 Noroeste 0 -- -- 41
2021-02-22 16:00:00 10.9 8 Oeste 18 Oeste 0 -- -- 49
2021-02-22 15:00:00 10 6 Oeste 15 Oeste 0 -- -- 53
2021-02-22 14:00:00 9.7 6 Noroeste 17 Oeste 0 -- -- 57
2021-02-22 13:00:00 7.6 10 Oeste 18 Oeste 0 -- -- 69
2021-02-22 12:00:00 7.5 9 Oeste 22 Oeste 0 -- -- 64
2021-02-22 11:00:00 5.7 12 Oeste 22 Oeste 0 -- -- 78
2021-02-22 10:00:00 3.5 17 Sudoeste 23 Oeste 0 -- -- 90
2021-02-22 09:00:00 1.4 15 Sudoeste 21 Sudoeste 0 -- -- 96
2021-02-22 08:00:00 1.4 12 Sudoeste 17 Sudoeste 0 -- -- 97
2021-02-22 07:00:00 1.5 12 Sudoeste 16 Oeste 0 -- -- 96
2021-02-22 06:00:00 2.9 13 Oeste 22 Oeste 0 -- -- 94
2021-02-22 05:00:00 3.6 17 Oeste 27 Oeste 0 -- -- 93
2021-02-22 04:00:00 4 17 Oeste 26 Oeste 0 -- -- 92
2021-02-22 03:00:00 4.4 15 Oeste 22 Oeste 0 -- -- 92
2021-02-22 02:00:00 4.5 11 Oeste 19 Noroeste 0 -- -- 93
2021-02-22 01:00:00 4.3 14 Noroeste 25 Noroeste 0 -- -- 94
2021-02-22 00:00:00 4.3 18 Noroeste 28 Noroeste 0.2 -- -- 94
2021-02-21 23:00:00 4.7 18 Noroeste 30 Noroeste 0.6 -- -- 95
2021-02-21 22:00:00 4.7 22 Noroeste 35 Oeste 0.8 -- -- 95
2021-02-21 21:00:00 3.9 17 Sudoeste 25 Sudoeste 1 -- -- 97
2021-02-21 20:00:00 3.4 14 Sudoeste 23 Sudoeste 1 -- -- 96
2021-02-21 19:00:00 3.8 14 Sudoeste 27 Oeste 1 -- -- 95
2021-02-21 18:00:00 4.2 21 Oeste 32 Sudoeste 0.8 -- -- 94
2021-02-21 17:00:00 5.7 19 Sudoeste 24 Oeste 0.8 -- -- 94
2021-02-21 16:00:00 6.4 17 Sudoeste 22 Oeste 0 -- -- 89
2021-02-21 15:00:00 7.4 6 Sudoeste 28 Sudoeste 0 -- -- 85
2021-02-21 14:00:00 7.2 23 Oeste 35 Oeste 0 -- -- 85
2021-02-21 13:00:00 8.3 21 Oeste 38 Oeste 0 -- -- 79
2021-02-21 12:00:00 11.4 31 Sudeste 42 Sudeste 0 -- -- 63
2021-02-21 11:00:00 11.1 27 Sudeste 41 Sudeste 0 -- -- 65
2021-02-21 10:00:00 11.3 24 Sudeste 32 Sudeste 0 -- -- 63
2021-02-21 09:00:00 9.3 14 Sudeste 22 Sudeste 0 -- -- 67
2021-02-21 08:00:00 8.4 20 Sudeste 45 Sudeste 0 -- -- 66
2021-02-21 07:00:00 9.4 34 Sudeste 47 Sudeste 0 -- -- 64
2021-02-21 06:00:00 10 35 Sudeste 51 Sudeste 0 -- -- 60
2021-02-21 05:00:00 10.1 34 Sudeste 45 Sudeste 0 -- -- 59
2021-02-21 04:00:00 10.3 35 Sudeste 51 Sudeste 0 -- -- 57
2021-02-21 03:00:00 10.7 31 Sudeste 45 Sudeste 0 -- -- 50
2021-02-21 02:00:00 11.8 14 Sudeste 33 Sur 0 -- -- 37
2021-02-21 01:00:00 11 13 Sudeste 37 Sudeste 0 -- -- 40
2021-02-21 00:00:00 12.6 26 Sudeste 39 Sudeste 0 -- -- 34
2021-02-20 23:00:00 11.4 11 Sudeste 27 Sudeste 0 -- -- 36
2021-02-20 22:00:00 11.2 13 Sudeste 39 Sudeste 0 -- -- 35
2021-02-20 21:00:00 10.7 11 Sudeste 30 Sudeste 0 -- -- 40
2021-02-20 20:00:00 11.1 23 Sudeste 43 Sur 0 -- -- 40
2021-02-20 19:00:00 12 27 Sur 56 Sur 0 -- -- 37
2021-02-20 18:00:00 13.5 37 Sur 58 Sur 0 -- -- 38
2021-02-20 17:00:00 13.6 29 Sur 51 Sur 0 -- -- 40
2021-02-20 16:00:00 13.8 35 Sur 56 Sur 0 -- -- 41
2021-02-20 15:00:00 14.3 40 Sur 55 Sur 0 -- -- 37
2021-02-20 14:00:00 13.6 36 Sur 53 Sur 0 -- -- 41
2021-02-20 13:00:00 12.9 36 Sur 51 Sur 0 -- -- 39
2021-02-20 12:00:00 12.3 23 Sudeste 47 Sur 0 -- -- 47
2021-02-20 11:00:00 11.6 37 Sur 54 Sur 0 -- -- 48
2021-02-20 10:00:00 10.9 36 Sur 45 Sur 0 -- -- 49
2021-02-20 09:00:00 6.6 2 Sudeste 10 Oeste 0 -- -- 66
2021-02-20 08:00:00 5.2 2 Sur 17 Este 0 -- -- 75
2021-02-20 07:00:00 5.2 6 Sur 14 Oeste 0 -- -- 74
2021-02-20 06:00:00 6.6 11 Sur 25 Sur 0 -- -- 65
2021-02-20 05:00:00 7.4 18 Sur 24 Sur 0 -- -- 62
2021-02-20 04:00:00 8.2 18 Sudeste 28 Sur 0 -- -- 61
2021-02-20 03:00:00 6.5 17 Sur 22 Sur 0 -- -- 68
2021-02-20 02:00:00 2.2 4 Sudeste 16 Este 0 -- -- 86
2021-02-20 01:00:00 2.9 5 Sudeste 9 Sur 0 -- -- 83
2021-02-20 00:00:00 4.2 4 Oeste 17 Sudeste 0 -- -- 76
2021-02-19 23:00:00 4.9 12 Sudeste 15 Sudeste 0 -- -- 76
2021-02-19 22:00:00 7 7 Este 15 Este 0 -- -- 69
2021-02-19 21:00:00 6.4 8 Sur 17 Sur 0 -- -- 73
2021-02-19 20:00:00 9.7 14 Sur 20 Sur 0 -- -- 63
2021-02-19 19:00:00 10.6 10 Sudoeste 18 Sudoeste 0 -- -- 67
2021-02-19 18:00:00 12.5 14 Sudoeste 34 Sudoeste 0 -- -- 56
2021-02-19 17:00:00 14.5 20 Oeste 37 Oeste 0 -- -- 48
2021-02-19 16:00:00 15.8 26 Oeste 41 Sudoeste 0 -- -- 41
2021-02-19 15:00:00 16.3 16 Oeste 30 Sudoeste 0 -- -- 43
2021-02-19 14:00:00 16.6 9 Sudoeste 17 Sudoeste 0 -- -- 40
2021-02-19 13:00:00 15.7 6 Sur 15 Sur 0 -- -- 49
2021-02-19 12:00:00 14.1 5 Sudeste 13 Este 0 -- -- 47
2021-02-19 11:00:00 11.3 6 Sudeste 12 Sudeste 0 -- -- 64
2021-02-19 10:00:00 8 9 Sur 13 Sudeste 0 -- -- 74
2021-02-19 09:00:00 3.8 10 Sur 12 Sur 0 -- -- 88
2021-02-19 08:00:00 3.1 9 Sur 13 Sur 0 -- -- 87
2021-02-19 07:00:00 3.3 6 Sur 15 Sur 0 -- -- 86
2021-02-19 06:00:00 6 14 Sur 19 Sur 0 -- -- 78
2021-02-19 05:00:00 4.8 10 Sur 24 Sur 0 -- -- 84
2021-02-19 04:00:00 4.8 11 Sur 16 Sur 0 -- -- 81
2021-02-19 03:00:00 5.3 9 Sur 16 Sur 0 -- -- 82
2021-02-19 02:00:00 7.4 15 Sur 19 Sur 0 -- -- 76
2021-02-19 01:00:00 7.3 11 Sur 18 Sur 0 -- -- 79
2021-02-19 00:00:00 8.3 10 Sur 21 Sur 0 -- -- 74
2021-02-18 23:00:00 8.7 9 Sur 21 Sur 0 -- -- 74
2021-02-18 22:00:00 9.4 14 Sur 27 Sudoeste 0 -- -- 70
2021-02-18 21:00:00 10.2 16 Sudoeste 28 Sudoeste 0 -- -- 70
2021-02-18 20:00:00 10.4 17 Sudoeste 33 Sudoeste 0 -- -- 69
2021-02-18 19:00:00 10.9 19 Sudoeste 35 Sudoeste 0 -- -- 66
2021-02-18 18:00:00 12.3 22 Sudoeste 42 Sudoeste 0 -- -- 58
2021-02-18 17:00:00 14 25 Sudoeste 42 Sudoeste 0 -- -- 54
2021-02-18 16:00:00 14.2 32 Sudoeste 50 Sudoeste 0 -- -- 53
2021-02-18 15:00:00 14.1 37 Sudoeste 53 Sudoeste 0 -- -- 52
2021-02-18 14:00:00 13.5 37 Sudoeste 51 Sudoeste 0 -- -- 57
2021-02-18 13:00:00 12.6 39 Sudoeste 56 Sudoeste 0 -- -- 60
2021-02-18 12:00:00 12.2 33 Sudoeste 47 Sudoeste 0 -- -- 64
2021-02-18 11:00:00 10.4 24 Sudoeste 34 Sudoeste 0 -- -- 75
2021-02-18 10:00:00 7.4 14 Oeste 24 Sudoeste 0 -- -- 88
2021-02-18 09:00:00 6.9 14 Sudoeste 22 Sudoeste 0 -- -- 89
2021-02-18 08:00:00 6 15 Sudoeste 29 Sur 0 -- -- 84
2021-02-18 07:00:00 5.1 14 Sur 17 Sur 0 -- -- 83
2021-02-18 06:00:00 5.8 14 Sur 18 Sur 0 -- -- 84
2021-02-18 05:00:00 7.2 13 Sur 33 Sudoeste 0 -- -- 86
2021-02-18 04:00:00 8.7 24 Sudoeste 44 Sudoeste 0 -- -- 85
2021-02-18 03:00:00 8.4 21 Sudoeste 30 Sudoeste 0 -- -- 84
2021-02-18 02:00:00 7.9 12 Sudoeste 20 Sur 0 -- -- 73
2021-02-18 01:00:00 6.1 4 Sur 16 Sur 0 -- -- 80
2021-02-18 00:00:00 7.3 8 Sudoeste 15 Sudoeste 0 -- -- 74
2021-02-17 23:00:00 7.3 10 Sur 24 Sudoeste 0 -- -- 89
2021-02-17 22:00:00 9.1 15 Sudoeste 20 Sudoeste 0 -- -- 81
2021-02-17 21:00:00 7.2 7 Sudoeste 15 Sudoeste 0 -- -- 89
2021-02-17 20:00:00 9.4 13 Sudoeste 23 Sudoeste 0 -- -- 81
2021-02-17 19:00:00 11.8 17 Sudoeste 23 Sudoeste 0 -- -- 67
2021-02-17 18:00:00 13.2 15 Sudoeste 23 Sudoeste 0 -- -- 68
2021-02-17 17:00:00 14.3 15 Oeste 31 Sudoeste 0 -- -- 65
2021-02-17 16:00:00 15.1 19 Sudoeste 35 Sudoeste 0 -- -- 64
2021-02-17 15:00:00 14.3 19 Sudoeste 33 Sudoeste 0 -- -- 69
2021-02-17 14:00:00 14 22 Sudoeste 32 Sudoeste 0 -- -- 68
2021-02-17 13:00:00 13.9 25 Sudoeste 34 Sudoeste 0 -- -- 69
2021-02-17 12:00:00 12.6 18 Sudoeste 26 Sudoeste 0 -- -- 75
2021-02-17 11:00:00 10.3 9 Sur 17 Sur 0 -- -- 85
2021-02-17 10:00:00 9.6 10 Sur 14 Sudoeste 0 -- -- 87
2021-02-17 09:00:00 7.4 9 Sur 12 Sur 0 -- -- 93
2021-02-17 08:00:00 6.4 11 Sudeste 14 Sudeste 0 -- -- 97
2021-02-17 07:00:00 5.4 7 Sur 9 Sur 0 -- -- 98
2021-02-17 06:00:00 6.1 3 Sur 6 Este 0 -- -- 97
2021-02-17 05:00:00 6.3 3 Sudeste 9 Sur 0 -- -- 96
2021-02-17 04:00:00 6.9 6 Sudoeste 9 Sudoeste 0 -- -- 93
2021-02-17 03:00:00 8.2 8 Oeste 11 Oeste 0 -- -- 91
2021-02-17 02:00:00 8.6 8 Sudoeste 20 Sudoeste 0 -- -- 88
2021-02-17 01:00:00 9.4 14 Sudoeste 20 Sudoeste 0 -- -- 83
2021-02-17 00:00:00 8.9 13 Sudoeste 17 Sudoeste 0 -- -- 84
2021-02-16 23:00:00 8.9 11 Sudoeste 14 Sudoeste 0 -- -- 86
2021-02-16 22:00:00 9 6 Sudoeste 11 Sudoeste 0 -- -- 88
2021-02-16 21:00:00 9.8 9 Sudoeste 22 Sudoeste 0 -- -- 84
2021-02-16 20:00:00 10.5 17 Sudoeste 25 Sudoeste 0 -- -- 79
2021-02-16 19:00:00 10.9 15 Sudoeste 36 Sudoeste 0 -- -- 78
2021-02-16 18:00:00 11.9 20 Sudoeste 30 Sudoeste 0 -- -- 72
2021-02-16 17:00:00 12.5 19 Sudoeste 33 Sudoeste 0 -- -- 67
2021-02-16 16:00:00 13 20 Sudoeste 41 Sudoeste 0 -- -- 65
2021-02-16 15:00:00 13.7 26 Sudoeste 41 Sudoeste 0 -- -- 58
2021-02-16 14:00:00 13.2 29 Sudoeste 40 Sudoeste 0 -- -- 61
2021-02-16 13:00:00 12.3 24 Sudoeste 32 Sudoeste 0 -- -- 65
2021-02-16 12:00:00 10.7 14 Oeste 23 Oeste 0 -- -- 74
2021-02-16 11:00:00 10.4 13 Oeste 26 Oeste 0 -- -- 70
2021-02-16 10:00:00 9.3 14 Oeste 20 Sudoeste 0 -- -- 74
2021-02-16 09:00:00 4.3 4 Oeste 16 Sur 0 -- -- 88
2021-02-16 08:00:00 4.7 14 Sur 20 Sur 0 -- -- 87
2021-02-16 07:00:00 4.8 19 Sur 23 Sur 0 -- -- 87
2021-02-16 06:00:00 3 9 Sur 14 Sur 0 -- -- 94
2021-02-16 05:00:00 2.3 4 Sur 9 Sur 0 -- -- 92
2021-02-16 04:00:00 2.7 3 Oeste 16 Sur 0 -- -- 94
2021-02-16 03:00:00 7 16 Sur 25 Sur 0 -- -- 79
2021-02-16 02:00:00 6.6 14 Sur 27 Sur 0 -- -- 84
2021-02-16 01:00:00 8.6 21 Sur 28 Sur 0 -- -- 77
2021-02-16 00:00:00 8.5 20 Sur 28 Sur 0 -- -- 81
2021-02-15 23:00:00 8.5 21 Sur 33 Sudeste 0 -- -- 82
2021-02-15 22:00:00 8.7 19 Sur 26 Sudeste 0 -- -- 81
2021-02-15 21:00:00 8 14 Sur 21 Sur 0 -- -- 84
2021-02-15 20:00:00 9.2 15 Sur 26 Sudeste 0 -- -- 80
2021-02-15 19:00:00 11.1 19 Sudeste 28 Sudeste 0 -- -- 74
2021-02-15 18:00:00 15.2 16 Sur 32 Sudeste 0 -- -- 61
2021-02-15 17:00:00 16.3 24 Sudeste 31 Sudeste 0 -- -- 59
2021-02-15 16:00:00 16.6 24 Sudeste 32 Sudeste 0 -- -- 58
2021-02-15 15:00:00 15.8 22 Sudeste 35 Sudeste 0 -- -- 61
2021-02-15 14:00:00 15.1 24 Sudeste 33 Sudeste 0 -- -- 60
2021-02-15 13:00:00 13.9 25 Sudeste 33 Sudeste 0 -- -- 63
2021-02-15 12:00:00 12.5 21 Sudeste 34 Sur 0 -- -- 68
2021-02-15 11:00:00 11 22 Sur 30 Sur 0 -- -- 75
2021-02-15 10:00:00 8.1 18 Sur 24 Sur 0 -- -- 86
2021-02-15 09:00:00 4.7 7 Sur 14 Sudeste 0 -- -- 94
2021-02-15 08:00:00 1.7 4 Este 9 Sudeste 0 -- -- 96
2021-02-15 07:00:00 1.9 0 Calma 5 Sudoeste 0 -- -- 99
2021-02-15 06:00:00 2.4 3 Sudoeste 5 Sur 0 -- -- 94
2021-02-15 05:00:00 3.1 5 Sur 8 Sur 0 -- -- 92
2021-02-15 04:00:00 4.8 6 Sudoeste 11 Sur 0 -- -- 91
2021-02-15 03:00:00 3.3 4 Sudoeste 9 Sur 0 -- -- 95
2021-02-15 02:00:00 5.1 8 Sur 15 Sur 0 -- -- 88
2021-02-15 01:00:00 6.8 15 Sur 18 Sur 0 -- -- 85
2021-02-15 00:00:00 7.1 13 Sur 21 Sur 0 -- -- 85
2021-02-14 23:00:00 8.2 18 Sur 23 Sur 0 -- -- 81
2021-02-14 22:00:00 8.2 15 Sur 19 Sur 0 -- -- 84
2021-02-14 21:00:00 8.7 16 Sur 26 Sur 0 -- -- 83
2021-02-14 20:00:00 9.6 16 Sur 21 Sur 0 -- -- 82
2021-02-14 19:00:00 11 15 Sudeste 18 Sur 0 -- -- 80
2021-02-14 18:00:00 14.5 6 Sudeste 7 Sudeste 0 -- -- 63
2021-02-14 17:00:00 15.9 6 Sur 9 Sur 0 -- -- 60
2021-02-14 16:00:00 16.2 6 Sudoeste 14 Sur 0 -- -- 52
2021-02-14 15:00:00 16.4 10 Sur 19 Sur 0 -- -- 51
2021-02-14 14:00:00 15.5 10 Sur 19 Sudoeste 0 -- -- 55
2021-02-14 13:00:00 14.7 13 Sudeste 19 Sudeste 0 -- -- 62
2021-02-14 12:00:00 12.7 6 Sudeste 12 Sudeste 0 -- -- 74
2021-02-14 11:00:00 9.6 4 Sudeste 5 Sudeste 0 -- -- 78
2021-02-14 10:00:00 5.5 3 Sudeste 6 Sudeste 0 -- -- 88
2021-02-14 09:00:00 2.1 3 Sur 5 Sur 0 -- -- 96
2021-02-14 08:00:00 -0.3 2 Este 8 Sudeste 0 -- -- 100
2021-02-14 07:00:00 -0.1 3 Este 6 Sudeste 0 -- -- 99
2021-02-14 06:00:00 0.2 4 Noroeste 8 Oeste 0 -- -- 99
2021-02-14 05:00:00 1.5 3 Sur 7 Sudeste 0 -- -- 97
2021-02-14 04:00:00 1.9 5 Sur 10 Sur 0 -- -- 98
2021-02-14 03:00:00 1.8 4 Sur 6 Sur 0 -- -- 98
2021-02-14 02:00:00 2.8 0 Calma 10 Sur 0 -- -- 97
2021-02-14 01:00:00 3.9 9 Sur 13 Sur 0 -- -- 96
2021-02-14 00:00:00 3.5 4 Sur 10 Sudeste 0 -- -- 98
2021-02-13 23:00:00 4.2 3 Sudoeste 7 Sudoeste 0 -- -- 98
2021-02-13 22:00:00 4.9 5 Sur 8 Sudoeste 0 -- -- 96
2021-02-13 21:00:00 6.2 7 Sudoeste 10 Sudoeste 0 -- -- 95
2021-02-13 20:00:00 7.9 9 Oeste 12 Oeste 0 -- -- 91
2021-02-13 19:00:00 9.4 8 Oeste 21 Oeste 0 -- -- 86
2021-02-13 18:00:00 13.8 11 Oeste 23 Oeste 0 -- -- 70
2021-02-13 17:00:00 14.4 13 Oeste 23 Oeste 0 -- -- 68
2021-02-13 16:00:00 14.5 12 Oeste 19 Oeste 0 -- -- 63
2021-02-13 15:00:00 13.5 12 Oeste 26 Oeste 0 -- -- 66
2021-02-13 14:00:00 12.6 8 Oeste 21 Oeste 0 -- -- 66
2021-02-13 13:00:00 10.7 16 Oeste 25 Oeste 0 -- -- 72
2021-02-13 08:00:00 -- -- -- -- -- -- -- -- --
2021-02-13 07:00:00 2.3 9 Sur 11 Sur 0 -- -- 98
2021-02-13 06:00:00 2.9 8 Sudoeste 12 Sudoeste 0 -- -- 96
2021-02-13 05:00:00 2.9 10 Sudoeste 14 Sudoeste 0 -- -- 97
2021-02-13 04:00:00 3.8 11 Sudoeste 19 Sudoeste 0 -- -- 93
2021-02-13 03:00:00 4.4 13 Sudoeste 23 Sudoeste 0 -- -- 92
2021-02-13 02:00:00 4.5 13 Sudoeste 22 Sudoeste 0 -- -- 91
2021-02-13 01:00:00 5 14 Sudoeste 19 Sudoeste 0 -- -- 91
2021-02-13 00:00:00 6 11 Sudoeste 18 Sudoeste 0 -- -- 90
2021-02-12 23:00:00 5.5 14 Sudoeste 18 Sudoeste 0 -- -- 91
2021-02-12 22:00:00 5.6 9 Sudoeste 15 Oeste 0 -- -- 94
2021-02-12 21:00:00 6 8 Sudoeste 16 Sudoeste 0 -- -- 92
2021-02-12 20:00:00 7 12 Oeste 17 Oeste 0 -- -- 87
2021-02-12 19:00:00 8.1 8 Sudoeste 26 Oeste 0 -- -- 81
2021-02-12 18:00:00 11.8 18 Oeste 31 Oeste 0 -- -- 67
2021-02-12 17:00:00 12.4 22 Oeste 31 Oeste 0 -- -- 65
2021-02-12 16:00:00 11.4 20 Oeste 36 Oeste 0 -- -- 70
2021-02-12 15:00:00 11.5 26 Oeste 39 Oeste 0 -- -- 70
2021-02-12 14:00:00 11.6 30 Oeste 45 Oeste 0 -- -- 72
2021-02-12 13:00:00 10.8 34 Oeste 48 Oeste 0 -- -- 73
2021-02-12 12:00:00 10.5 31 Oeste 46 Oeste 0 -- -- 79
2021-02-12 11:00:00 8.8 24 Oeste 43 Oeste 0 -- -- 88
2021-02-12 10:00:00 8.6 28 Oeste 39 Oeste 0 -- -- 87
2021-02-12 09:00:00 7.3 22 Sudoeste 32 Sudoeste 0 -- -- 92
2021-02-12 08:00:00 7 24 Sudoeste 35 Sudoeste 0 -- -- 92
2021-02-12 07:00:00 7.6 20 Sudoeste 45 Oeste 0 -- -- 91
2021-02-12 06:00:00 9 29 Oeste 44 Oeste 0 -- -- 90
2021-02-12 05:00:00 9.3 24 Oeste 36 Sudoeste 0.2 -- -- 91
2021-02-12 04:00:00 8.8 13 Sudoeste 21 Sudoeste 0.8 -- -- 97
2021-02-12 03:00:00 8.9 14 Sudoeste 39 Oeste 2.4 -- -- 93
2021-02-12 02:00:00 8.7 10 Sudoeste 24 Sur 0.2 -- -- 90
2021-02-12 01:00:00 8.8 16 Sudoeste 20 Sur 0 -- -- 88
2021-02-12 00:00:00 8.7 14 Sudoeste 21 Sudoeste 0 -- -- 89
2021-02-11 23:00:00 8.7 12 Sudoeste 17 Sudoeste 0 -- -- 89
2021-02-11 22:00:00 7.9 11 Sur 13 Sur 0 -- -- 94
2021-02-11 21:00:00 9.5 14 Sudoeste 23 Sudoeste 0 -- -- 89
2021-02-11 20:00:00 10.1 9 Sudoeste 21 Sudoeste 0 -- -- 87
2021-02-11 19:00:00 11.4 15 Sudoeste 31 Sudoeste 0 -- -- 84
2021-02-11 18:00:00 13.1 19 Sudoeste 30 Sudoeste 0 -- -- 77
2021-02-11 17:00:00 14.1 23 Sudoeste 40 Sudoeste 0 -- -- 74
2021-02-11 16:00:00 14.7 26 Sudoeste 47 Sudoeste 0 -- -- 75
2021-02-11 15:00:00 14.1 27 Sudoeste 38 Sudoeste 0 -- -- 79
2021-02-11 14:00:00 14 22 Sudoeste 34 Sudoeste 0 -- -- 81
2021-02-11 13:00:00 13.5 23 Sudoeste 30 Sudoeste 0 -- -- 84
2021-02-11 12:00:00 12.3 15 Sudoeste 23 Sudoeste 0 -- -- 88
2021-02-11 11:00:00 11.4 13 Sudoeste 24 Sudoeste 0 -- -- 91
2021-02-11 10:00:00 10.5 10 Sudoeste 14 Sudoeste 0 -- -- 94
2021-02-11 09:00:00 9.1 9 Sur 18 Sudoeste 0 -- -- 96
2021-02-11 08:00:00 8.9 9 Sudoeste 18 Sudoeste 0 -- -- 97
2021-02-11 07:00:00 8.9 10 Sudoeste 19 Sudoeste 0.2 -- -- 97
2021-02-11 06:00:00 8.6 14 Sudoeste 20 Sudoeste 0 -- -- 96
2021-02-11 05:00:00 8.4 13 Sudoeste 21 Sudoeste 0 -- -- 94
2021-02-11 04:00:00 8 9 Sur 14 Sur 0 -- -- 96
2021-02-11 03:00:00 7.7 9 Sur 15 Sudoeste 0 -- -- 96
2021-02-11 02:00:00 8 13 Sudoeste 20 Sudoeste 0 -- -- 94
2021-02-11 01:00:00 7.2 0 Calma 14 Oeste 0.2 -- -- 94
2021-02-11 00:00:00 8.1 11 Sudoeste 22 Sudoeste 0 -- -- 87
2021-02-10 23:00:00 7.7 14 Sudoeste 19 Sudoeste 0 -- -- 88
2021-02-10 22:00:00 5.7 9 Sudoeste 13 Sudoeste 0 -- -- 94
2021-02-10 21:00:00 6.4 10 Sudoeste 15 Sudoeste 0 -- -- 84
2021-02-10 20:00:00 7.4 8 Sudoeste 13 Oeste 0 -- -- 78
2021-02-10 19:00:00 7.4 9 Oeste 18 Oeste 0 -- -- 79
2021-02-10 18:00:00 9.9 21 Oeste 37 Oeste 0 -- -- 64
2021-02-10 17:00:00 11.6 26 Oeste 36 Oeste 0 -- -- 57
2021-02-10 16:00:00 11.6 24 Oeste 37 Oeste 0 -- -- 55
2021-02-10 15:00:00 11.3 23 Oeste 37 Oeste 0 -- -- 59
2021-02-10 14:00:00 10.3 24 Oeste 35 Oeste 0 -- -- 67
2021-02-10 13:00:00 9.4 25 Oeste 42 Oeste 0 -- -- 69
2021-02-10 12:00:00 8.6 29 Oeste 53 Oeste 0 -- -- 73
2021-02-10 11:00:00 7.5 25 Oeste 37 Oeste 0 -- -- 76
2021-02-10 10:00:00 6.3 19 Oeste 32 Oeste 0 -- -- 86
2021-02-10 09:00:00 5.7 24 Oeste 32 Oeste 0 -- -- 93
2021-02-10 08:00:00 4.8 22 Oeste 48 Oeste 0 -- -- 93
2021-02-10 07:00:00 5.5 32 Oeste 45 Oeste 0 -- -- 89
2021-02-10 06:00:00 4.9 30 Oeste 43 Oeste 0 -- -- 91
2021-02-10 05:00:00 4.9 30 Oeste 62 Oeste 1 -- -- 91
2021-02-10 04:00:00 4.9 32 Oeste 64 Oeste 0.6 -- -- 92
2021-02-10 03:00:00 5.8 39 Oeste 60 Oeste 3.6 -- -- 98
2021-02-10 02:00:00 5 11 Sudoeste 34 Sudoeste 2.8 -- -- 99
2021-02-10 01:00:00 5.5 30 Sudoeste 46 Sudoeste 0.4 -- -- 91
2021-02-10 00:00:00 5.1 25 Sudoeste 55 Oeste 0 -- -- 90
2021-02-09 23:00:00 5.5 41 Sudoeste 62 Sudoeste 0.2 -- -- 90
2021-02-09 22:00:00 5.3 27 Oeste 55 Oeste 0.2 -- -- 94
2021-02-09 21:00:00 6.1 40 Sudoeste 53 Sudoeste 0 -- -- 86
2021-02-09 20:00:00 4.6 18 Sudoeste 28 Sudoeste 0 -- -- 95
2021-02-09 19:00:00 3.8 10 Oeste 53 Oeste 4.8 -- -- 97
2021-02-09 18:00:00 6.7 19 Sur 28 Sudoeste 0 -- -- 89
2021-02-09 17:00:00 6.9 16 Sudoeste 37 Sudoeste 0 -- -- 85
2021-02-09 16:00:00 6.5 35 Sudoeste 65 Sudoeste 0 -- -- 84
2021-02-09 15:00:00 4.5 31 Sudoeste 41 Sur 0 -- -- 92
2021-02-09 14:00:00 4.2 22 Oeste 63 Oeste 1.8 -- -- 92
2021-02-09 13:00:00 5.9 51 Oeste 69 Sudoeste 3.6 -- -- 90
2021-02-09 12:00:00 8 34 Sudoeste 61 Sudoeste 0.2 -- -- 87
2021-02-09 11:00:00 8.2 32 Sudoeste 46 Sudoeste 0.2 -- -- 83
2021-02-09 10:00:00 7.5 27 Sudoeste 55 Sudoeste 0 -- -- 89
2021-02-09 09:00:00 7.7 32 Sudoeste 59 Sudoeste 0 -- -- 84
2021-02-09 08:00:00 7.7 37 Sudoeste 56 Sur 0 -- -- 84
2021-02-09 07:00:00 7.4 34 Sudoeste 46 Sudoeste 0 -- -- 87
2021-02-09 06:00:00 6.9 29 Sudoeste 44 Sudoeste 0 -- -- 89
2021-02-09 05:00:00 6.3 24 Sudoeste 36 Sudoeste 0.2 -- -- 93
2021-02-09 04:00:00 5.7 19 Sudoeste 31 Sudoeste 0 -- -- 91
2021-02-09 03:00:00 5.3 23 Sudoeste 34 Sudoeste 0 -- -- 90
2021-02-09 02:00:00 5.4 19 Sudoeste 39 Sudoeste 0.6 -- -- 90
2021-02-09 01:00:00 5.9 18 Sudoeste 35 Sudoeste 0 -- -- 92
2021-02-09 00:00:00 6.1 24 Sudoeste 35 Sudoeste 0 -- -- 91
2021-02-08 23:00:00 6.3 23 Sudoeste 37 Sudoeste 0 -- -- 91
2021-02-08 22:00:00 6 22 Sudoeste 36 Sudoeste 0 -- -- 93
2021-02-08 21:00:00 6.7 26 Oeste 47 Oeste 0 -- -- 90
2021-02-08 20:00:00 6.8 27 Oeste 44 Sudoeste 0 -- -- 92
2021-02-08 19:00:00 6.9 26 Oeste 40 Oeste 0.6 -- -- 93
2021-02-08 18:00:00 6.9 28 Oeste 50 Oeste 0.2 -- -- 92
2021-02-08 17:00:00 6.9 31 Oeste 43 Oeste 0.6 -- -- 92
2021-02-08 16:00:00 6.1 31 Oeste 51 Oeste 2 -- -- 92
2021-02-08 15:00:00 7.1 31 Oeste 54 Oeste 0 -- -- 84
2021-02-08 14:00:00 8.1 34 Sudoeste 56 Sudoeste 0 -- -- 79
2021-02-08 13:00:00 7.6 39 Oeste 53 Oeste 0 -- -- 78
2021-02-08 12:00:00 7.3 32 Oeste 59 Sudoeste 0 -- -- 83
2021-02-08 11:00:00 6.2 30 Sudoeste 44 Oeste 0 -- -- 90
2021-02-08 10:00:00 5.8 37 Sudoeste 54 Sudoeste 0 -- -- 88
2021-02-08 09:00:00 5 24 Sudoeste 36 Oeste 0.4 -- -- 94
2021-02-08 08:00:00 5 27 Oeste 41 Oeste 0 -- -- 91
2021-02-08 07:00:00 5 17 Sudoeste 31 Sudoeste 0 -- -- 95
2021-02-08 06:00:00 5.9 21 Sudoeste 31 Oeste 0 -- -- 93
2021-02-08 05:00:00 6.1 13 Oeste 30 Sudoeste 0.2 -- -- 95
2021-02-08 04:00:00 6.9 22 Sudoeste 37 Sudoeste 1.2 -- -- 93
2021-02-08 03:00:00 6.6 15 Sudoeste 43 Sudoeste 0 -- -- 94
2021-02-08 02:00:00 6.7 31 Sudoeste 55 Sudoeste 0.6 -- -- 92
2021-02-08 01:00:00 6.4 30 Sudoeste 51 Sudoeste 1 -- -- 94
2021-02-08 00:00:00 6.3 22 Sudoeste 41 Sudoeste 0 -- -- 89
2021-02-07 23:00:00 5.6 26 Sudoeste 37 Sudoeste 0 -- -- 91
2021-02-07 22:00:00 5 23 Sudoeste 32 Sudoeste 0 -- -- 91
2021-02-07 21:00:00 5.1 16 Sudoeste 29 Sudoeste 0 -- -- 94
2021-02-07 20:00:00 4.8 22 Sudoeste 40 Oeste 0 -- -- 92
2021-02-07 19:00:00 4.2 17 Sudoeste 37 Sudoeste 0.4 -- -- 94
2021-02-07 18:00:00 4.2 20 Oeste 36 Oeste 1 -- -- 94
2021-02-07 17:00:00 4.4 29 Oeste 38 Oeste 0.4 -- -- 89
2021-02-07 16:00:00 5.2 20 Oeste 38 Oeste 0.2 -- -- 83
2021-02-07 15:00:00 6.5 27 Oeste 35 Oeste 0 -- -- 77
2021-02-07 14:00:00 7.6 23 Oeste 31 Oeste 0 -- -- 77
2021-02-07 13:00:00 7.5 17 Sudoeste 26 Sudoeste 0 -- -- 75
2021-02-07 12:00:00 7.2 12 Sudoeste 25 Sudoeste 0 -- -- 77
2021-02-07 11:00:00 6.8 10 Sudoeste 15 Sudoeste 0 -- -- 77
2021-02-07 10:00:00 5.9 6 Sur 9 Sur 0 -- -- 81
2021-02-07 09:00:00 3.3 5 Sur 6 Sur 0 -- -- 95
2021-02-07 08:00:00 3.6 0 Calma 4 Sudeste 0 -- -- 95
2021-02-07 07:00:00 3.6 2 Sudeste 5 Este 0 -- -- 95
2021-02-07 06:00:00 3.6 3 Este 6 Nordeste 0 -- -- 94
2021-02-07 05:00:00 4 2 Nordeste 6 Nordeste 0 -- -- 91
2021-02-07 04:00:00 4 4 Este 7 Nordeste 0 -- -- 91
2021-02-07 03:00:00 4.2 4 Nordeste 6 Nordeste 0 -- -- 89
2021-02-07 02:00:00 4.6 4 Nordeste 8 Nordeste 0 -- -- 91
2021-02-07 01:00:00 4.7 5 Norte 11 Norte 0 -- -- 90
2021-02-07 00:00:00 5 9 Norte 16 Norte 0 -- -- 88
2021-02-06 23:00:00 5 6 Norte 12 Norte 0 -- -- 90
2021-02-06 22:00:00 5.1 8 Norte 12 Norte 0 -- -- 92
2021-02-06 21:00:00 4.9 4 Norte 9 Norte 0 -- -- 92
2021-02-06 20:00:00 5.4 9 Nordeste 20 Nordeste 0 -- -- 89
2021-02-06 19:00:00 5.9 13 Norte 24 Nordeste 0.2 -- -- 88
2021-02-06 18:00:00 6.3 16 Nordeste 27 Nordeste 0 -- -- 86
2021-02-06 17:00:00 6.9 18 Nordeste 36 Nordeste 0 -- -- 88
2021-02-06 16:00:00 7.3 22 Nordeste 35 Nordeste 0 -- -- 90
2021-02-06 15:00:00 7.7 21 Nordeste 28 Nordeste 0 -- -- 94
2021-02-06 14:00:00 8.3 12 Norte 20 Norte 0 -- -- 88
2021-02-06 13:00:00 8.1 13 Norte 17 Norte 0 -- -- 88
2021-02-06 12:00:00 8.2 10 Norte 13 Nordeste 0.4 -- -- 94
2021-02-06 11:00:00 6.6 7 Norte 10 Norte 1 -- -- 100
2021-02-06 10:00:00 6.4 4 Norte 7 Nordeste 1.6 -- -- 100
2021-02-06 09:00:00 6.5 5 Nordeste 7 Nordeste 0.6 -- -- 100
2021-02-06 08:00:00 6.5 4 Norte 7 Nordeste 1.2 -- -- 100
2021-02-06 07:00:00 6.6 4 Nordeste 6 Norte 1.4 -- -- 99
2021-02-06 06:00:00 6.7 3 Nordeste 7 Sur 3.6 -- -- 99
2021-02-06 05:00:00 6.9 5 Sur 15 Sudoeste 0.2 -- -- 97
2021-02-06 04:00:00 6.3 10 Sudoeste 16 Sudoeste 0 -- -- 97
2021-02-06 03:00:00 7.3 10 Sur 13 Sur 0 -- -- 94
2021-02-06 02:00:00 7.6 5 Sur 11 Sudeste 0 -- -- 98
2021-02-06 01:00:00 7.9 6 Sudeste 15 Sudoeste 0 -- -- 97
2021-02-06 00:00:00 8.9 17 Sur 25 Sudeste 0 -- -- 92
2021-02-05 23:00:00 8.6 7 Nordeste 12 Nordeste 0.2 -- -- 96
2021-02-05 22:00:00 8.2 6 Nordeste 9 Nordeste 0 -- -- 96
2021-02-05 21:00:00 7.3 4 Noroeste 6 Sudoeste 0 -- -- 97
2021-02-05 20:00:00 8.7 2 Sudeste 8 Este 0 -- -- 92
2021-02-05 19:00:00 10.3 3 Este 17 Nordeste 0 -- -- 88
2021-02-05 18:00:00 11.4 10 Nordeste 18 Nordeste 0 -- -- 82
2021-02-05 17:00:00 12.3 11 Nordeste 21 Nordeste 0 -- -- 79
2021-02-05 16:00:00 12.3 13 Norte 18 Norte 0 -- -- 80
2021-02-05 15:00:00 13 6 Norte 12 Norte 0 -- -- 73
2021-02-05 14:00:00 13 7 Este 12 Este 0 -- -- 73
2021-02-05 13:00:00 13.1 7 Este 12 Nordeste 0 -- -- 75
2021-02-05 12:00:00 13.8 0 Calma 7 Este 0.2 -- -- 72
2021-02-05 11:00:00 8.7 5 Nordeste 11 Este 0 -- -- 98
2021-02-05 10:00:00 6.9 3 Sudeste 20 Sudeste 1.4 -- -- 100
2021-02-05 09:00:00 6.2 10 Sur 21 Sudeste 0.4 -- -- 100
2021-02-05 08:00:00 6.7 8 Sudoeste 19 Sudeste 0 -- -- 100
2021-02-05 07:00:00 5.6 12 Este 16 Este 0 -- -- 100
2021-02-05 06:00:00 5.4 9 Nordeste 21 Este 0.4 -- -- 100
2021-02-05 05:00:00 5.4 9 Noroeste 12 Norte 0.2 -- -- 100
2021-02-05 04:00:00 5.4 5 Norte 10 Norte 0 -- -- 100
2021-02-05 03:00:00 5.4 4 Nordeste 15 Nordeste 0 -- -- 100
2021-02-05 02:00:00 5.1 9 Nordeste 22 Este 0.2 -- -- 100
2021-02-05 01:00:00 5.1 14 Este 20 Este 0 -- -- 100
2021-02-05 00:00:00 4.4 8 Nordeste 13 Norte 0 -- -- 100
2021-02-04 23:00:00 5.4 7 Noroeste 10 Noroeste 0 -- -- 99
2021-02-04 22:00:00 5.1 5 Este 10 Este 0 -- -- 99
2021-02-04 21:00:00 5.5 8 Este 13 Este 0 -- -- 99
2021-02-04 20:00:00 5.5 9 Este 12 Este 0 -- -- 98
2021-02-04 19:00:00 6 5 Este 6 Este 0.4 -- -- 97
2021-02-04 18:00:00 6 3 Norte 14 Oeste 0.6 -- -- 96
2021-02-04 17:00:00 6.4 10 Noroeste 18 Norte 0.2 -- -- 94
2021-02-04 16:00:00 6.4 15 Norte 26 Norte 0 -- -- 92
2021-02-04 15:00:00 6.4 18 Noroeste 27 Noroeste 0 -- -- 93
2021-02-04 14:00:00 6.5 21 Noroeste 27 Noroeste 1.2 -- -- 94
2021-02-04 13:00:00 6.5 17 Norte 36 Noroeste 2 -- -- 97
2021-02-04 12:00:00 7.4 14 Norte 23 Nordeste 0 -- -- 96
2021-02-04 11:00:00 7.5 13 Nordeste 19 Nordeste 0.2 -- -- 97
2021-02-04 10:00:00 7.5 7 Nordeste 13 Nordeste 0 -- -- 95
2021-02-04 09:00:00 7 8 Nordeste 11 Nordeste 0.2 -- -- 98
2021-02-04 08:00:00 6.8 3 Norte 7 Este 0 -- -- 96
2021-02-04 07:00:00 7.2 3 Sudeste 10 Sudeste 0 -- -- 97
2021-02-04 06:00:00 7.3 3 Este 5 Este 0 -- -- 97
2021-02-04 05:00:00 7.4 3 Sur 6 Sur 0.4 -- -- 96
2021-02-04 04:00:00 7.6 4 Sur 6 Sudoeste 0 -- -- 95
2021-02-04 03:00:00 7.9 5 Sudoeste 10 Sudoeste 0 -- -- 94
2021-02-04 02:00:00 8.3 8 Sudoeste 12 Sudoeste 0.2 -- -- 90
2021-02-04 01:00:00 8.7 9 Sudoeste 17 Sudoeste 0 -- -- 90
2021-02-04 00:00:00 8.6 10 Sudoeste 18 Sudoeste 0 -- -- 93
2021-02-03 23:00:00 8.9 14 Sudoeste 30 Sudoeste 0.2 -- -- 93
2021-02-03 22:00:00 9.1 16 Sudoeste 26 Sur 0.6 -- -- 96
2021-02-03 21:00:00 9.2 9 Sudoeste 21 Sudoeste 0.8 -- -- 97
2021-02-03 20:00:00 9.5 13 Sudoeste 30 Sudoeste 0.2 -- -- 95
2021-02-03 19:00:00 9.8 17 Sudoeste 26 Sudoeste 0.6 -- -- 93
2021-02-03 18:00:00 10.9 6 Oeste 13 Sudoeste 0 -- -- 89
2021-02-03 17:00:00 11.2 10 Sudoeste 31 Oeste 0.2 -- -- 84
2021-02-03 16:00:00 10.2 23 Oeste 37 Oeste 0 -- -- 86
2021-02-03 15:00:00 11.9 21 Oeste 38 Sudoeste 0 -- -- 79
2021-02-03 14:00:00 13.4 23 Sudoeste 41 Sudoeste 0 -- -- 73
2021-02-03 13:00:00 12.4 30 Sudoeste 40 Sudoeste 0 -- -- 76
2021-02-03 12:00:00 12 25 Sudoeste 44 Sudoeste 0 -- -- 79
2021-02-03 11:00:00 10.5 28 Sudoeste 49 Sudoeste 0 -- -- 84
2021-02-03 10:00:00 9.9 24 Sudoeste 37 Sudoeste 0 -- -- 87
2021-02-03 09:00:00 8.8 23 Sudoeste 42 Sudoeste 0 -- -- 90
2021-02-03 08:00:00 8.9 24 Sudoeste 35 Sudoeste 0 -- -- 90
2021-02-03 07:00:00 8.7 20 Sudoeste 36 Sudoeste 0 -- -- 89
2021-02-03 06:00:00 8.8 26 Sudoeste 42 Sudoeste 0 -- -- 89
2021-02-03 05:00:00 8.4 11 Sur 27 Sudoeste 0 -- -- 87
2021-02-03 04:00:00 8.8 16 Sudoeste 40 Sudoeste 0 -- -- 84
2021-02-03 03:00:00 8.2 14 Sudoeste 34 Sudoeste 0 -- -- 81
2021-02-03 02:00:00 8.5 14 Sudoeste 35 Sudoeste 0 -- -- 78
2021-02-03 01:00:00 7.8 14 Sur 31 Sur 0 -- -- 82
2021-02-03 00:00:00 7.7 24 Sur 36 Sur 0 -- -- 82
2021-02-02 23:00:00 6.9 16 Sur 24 Sur 0 -- -- 87
2021-02-02 22:00:00 9.2 17 Sudoeste 34 Sudoeste 0 -- -- 82
2021-02-02 21:00:00 8.7 22 Sudoeste 40 Sudoeste 0 -- -- 84
2021-02-02 20:00:00 9 31 Sudoeste 43 Sudoeste 0 -- -- 83
2021-02-02 19:00:00 9.8 26 Oeste 45 Oeste 0 -- -- 80
2021-02-02 18:00:00 10.6 37 Sudoeste 46 Sudoeste 0 -- -- 79
2021-02-02 17:00:00 11.9 30 Sudoeste 43 Sudoeste 0 -- -- 74
2021-02-02 16:00:00 13.4 24 Sudoeste 37 Oeste 0 -- -- 72
2021-02-02 15:00:00 12.8 15 Oeste 40 Sudoeste 0 -- -- 76
2021-02-02 14:00:00 13.4 23 Oeste 42 Sudoeste 0 -- -- 74
2021-02-02 13:00:00 12.9 28 Sudoeste 44 Sudoeste 0 -- -- 73
2021-02-02 12:00:00 11.5 18 Sudoeste 26 Sudoeste 0 -- -- 84
2021-02-02 11:00:00 10.4 9 Sudoeste 17 Oeste 0 -- -- 90
2021-02-02 10:00:00 9.9 13 Sudoeste 22 Oeste 0 -- -- 90
2021-02-02 09:00:00 9.1 9 Sudoeste 14 Sudoeste 0 -- -- 95
2021-02-02 08:00:00 8.9 9 Sur 20 Sudoeste 0 -- -- 96
2021-02-02 07:00:00 8.8 14 Sudoeste 22 Sudoeste 0 -- -- 95
2021-02-02 06:00:00 9.3 13 Sudoeste 22 Sudoeste 0 -- -- 94
2021-02-02 05:00:00 9.6 19 Sudoeste 29 Sudoeste 0 -- -- 92
2021-02-02 04:00:00 9.1 17 Sudoeste 29 Sudoeste 0 -- -- 94
2021-02-02 03:00:00 9.3 19 Sudoeste 27 Sudoeste 0 -- -- 92
2021-02-02 02:00:00 9 18 Sudoeste 28 Sudoeste 0 -- -- 93
2021-02-02 01:00:00 9.6 19 Sudoeste 28 Sudoeste 0 -- -- 92
2021-02-02 00:00:00 8.7 22 Sudoeste 32 Sudoeste 0 -- -- 94
2021-02-01 23:00:00 9.5 18 Sudoeste 31 Sudoeste 0 -- -- 91
2021-02-01 22:00:00 9.2 20 Sudoeste 30 Sudoeste 0 -- -- 89
2021-02-01 21:00:00 9.7 18 Sudoeste 33 Sudoeste 0 -- -- 84
2021-02-01 20:00:00 9.7 18 Oeste 40 Sudoeste 0 -- -- 80
2021-02-01 19:00:00 10.5 27 Sudoeste 42 Oeste 0 -- -- 78
2021-02-01 18:00:00 11.5 22 Oeste 44 Oeste 0 -- -- 75
2021-02-01 17:00:00 12.2 35 Oeste 54 Oeste 0 -- -- 72
2021-02-01 16:00:00 12.4 37 Oeste 57 Oeste 0 -- -- 70
2021-02-01 15:00:00 12.3 40 Oeste 55 Oeste 0 -- -- 70
2021-02-01 14:00:00 11.8 37 Oeste 50 Oeste 0 -- -- 75
2021-02-01 13:00:00 11 35 Oeste 47 Oeste 0 -- -- 79
2021-02-01 12:00:00 10.6 37 Oeste 55 Oeste 0 -- -- 80
2021-02-01 11:00:00 10.6 33 Oeste 48 Oeste 0 -- -- 79
2021-02-01 10:00:00 9 35 Sudoeste 45 Oeste 0 -- -- 83
2021-02-01 09:00:00 7.6 30 Sudoeste 44 Sudoeste 0 -- -- 87
2021-02-01 08:00:00 7.2 27 Sudoeste 49 Oeste 0 -- -- 89
2021-02-01 07:00:00 7.2 37 Oeste 51 Oeste 0 -- -- 89
2021-02-01 06:00:00 7.5 33 Oeste 51 Sudoeste 0 -- -- 88
2021-02-01 05:00:00 7.5 37 Oeste 54 Oeste 0 -- -- 88
2021-02-01 04:00:00 7.6 36 Oeste 50 Oeste 0 -- -- 87
2021-02-01 03:00:00 7.8 31 Oeste 40 Oeste 0 -- -- 87
2021-02-01 02:00:00 8.7 28 Oeste 49 Oeste 0 -- -- 87
2021-02-01 01:00:00 8.9 28 Oeste 39 Oeste 0 -- -- 88
2021-02-01 00:00:00 9.4 31 Oeste 49 Oeste 0 -- -- 88